sensor_id;sensor_type;location;lat;lon;timestamp;P1;durP1;ratioP1;P2;durP2;ratioP2
48911;SDS011;34722;52.108;5.044;2023-11-22T00:00:09;24.17;;;12.90;;
48911;SDS011;34722;52.108;5.044;2023-11-22T00:02:36;28.48;;;14.10;;
48911;SDS011;34722;52.108;5.044;2023-11-22T00:05:02;27.48;;;14.25;;
48911;SDS011;34722;52.108;5.044;2023-11-22T00:07:30;30.48;;;14.10;;
48911;SDS011;34722;52.108;5.044;2023-11-22T00:09:56;30.20;;;15.15;;
48911;SDS011;34722;52.108;5.044;2023-11-22T00:12:21;28.02;;;14.18;;
48911;SDS011;34722;52.108;5.044;2023-11-22T00:14:48;25.35;;;13.70;;
48911;SDS011;34722;52.108;5.044;2023-11-22T00:17:13;25.60;;;13.80;;
48911;SDS011;34722;52.108;5.044;2023-11-22T00:19:39;29.38;;;14.77;;
48911;SDS011;34722;52.108;5.044;2023-11-22T00:22:05;29.58;;;14.35;;
48911;SDS011;34722;52.108;5.044;2023-11-22T00:24:38;33.35;;;15.07;;
48911;SDS011;34722;52.108;5.044;2023-11-22T00:27:04;30.80;;;13.75;;
48911;SDS011;34722;52.108;5.044;2023-11-22T00:29:30;26.67;;;14.05;;
48911;SDS011;34722;52.108;5.044;2023-11-22T00:31:55;30.17;;;14.90;;
48911;SDS011;34722;52.108;5.044;2023-11-22T00:34:21;29.35;;;14.75;;
48911;SDS011;34722;52.108;5.044;2023-11-22T00:36:48;36.67;;;14.82;;
48911;SDS011;34722;52.108;5.044;2023-11-22T00:39:14;27.73;;;14.70;;
48911;SDS011;34722;52.108;5.044;2023-11-22T00:41:39;26.55;;;13.20;;
48911;SDS011;34722;52.108;5.044;2023-11-22T00:44:05;27.85;;;13.75;;
48911;SDS011;34722;52.108;5.044;2023-11-22T00:46:31;31.83;;;15.00;;
48911;SDS011;34722;52.108;5.044;2023-11-22T00:48:57;25.58;;;14.35;;
48911;SDS011;34722;52.108;5.044;2023-11-22T00:51:23;29.00;;;13.52;;
48911;SDS011;34722;52.108;5.044;2023-11-22T00:53:49;32.05;;;16.05;;
48911;SDS011;34722;52.108;5.044;2023-11-22T00:56:15;29.38;;;14.43;;
48911;SDS011;34722;52.108;5.044;2023-11-22T00:58:40;33.72;;;16.20;;
48911;SDS011;34722;52.108;5.044;2023-11-22T01:01:06;31.70;;;14.25;;
48911;SDS011;34722;52.108;5.044;2023-11-22T01:03:32;30.33;;;15.00;;
48911;SDS011;34722;52.108;5.044;2023-11-22T01:05:58;34.85;;;15.48;;
48911;SDS011;34722;52.108;5.044;2023-11-22T01:08:24;29.15;;;14.73;;
48911;SDS011;34722;52.108;5.044;2023-11-22T01:10:49;30.08;;;15.20;;
48911;SDS011;34722;52.108;5.044;2023-11-22T01:13:15;35.58;;;16.27;;
48911;SDS011;34722;52.108;5.044;2023-11-22T01:15:41;35.45;;;15.77;;
48911;SDS011;34722;52.108;5.044;2023-11-22T01:18:07;31.92;;;16.27;;
48911;SDS011;34722;52.108;5.044;2023-11-22T01:20:32;32.97;;;16.15;;
48911;SDS011;34722;52.108;5.044;2023-11-22T01:22:58;33.05;;;16.55;;
48911;SDS011;34722;52.108;5.044;2023-11-22T01:25:24;37.17;;;14.98;;
48911;SDS011;34722;52.108;5.044;2023-11-22T01:27:49;30.92;;;14.68;;
48911;SDS011;34722;52.108;5.044;2023-11-22T01:30:15;29.65;;;14.43;;
48911;SDS011;34722;52.108;5.044;2023-11-22T01:32:43;32.65;;;15.95;;
48911;SDS011;34722;52.108;5.044;2023-11-22T01:35:22;31.70;;;15.15;;
48911;SDS011;34722;52.108;5.044;2023-11-22T01:37:48;33.00;;;16.85;;
48911;SDS011;34722;52.108;5.044;2023-11-22T01:40:14;30.98;;;15.77;;
48911;SDS011;34722;52.108;5.044;2023-11-22T01:42:40;30.05;;;15.05;;
48911;SDS011;34722;52.108;5.044;2023-11-22T01:45:06;34.58;;;15.63;;
48911;SDS011;34722;52.108;5.044;2023-11-22T01:47:35;34.63;;;14.55;;
48911;SDS011;34722;52.108;5.044;2023-11-22T01:50:03;36.38;;;16.30;;
48911;SDS011;34722;52.108;5.044;2023-11-22T01:52:31;33.88;;;15.82;;
48911;SDS011;34722;52.108;5.044;2023-11-22T01:54:57;30.45;;;15.35;;
48911;SDS011;34722;52.108;5.044;2023-11-22T01:57:23;30.88;;;15.18;;
48911;SDS011;34722;52.108;5.044;2023-11-22T01:59:48;37.47;;;17.35;;
48911;SDS011;34722;52.108;5.044;2023-11-22T02:02:14;32.67;;;16.08;;
48911;SDS011;34722;52.108;5.044;2023-11-22T02:04:39;34.70;;;15.68;;
48911;SDS011;34722;52.108;5.044;2023-11-22T02:07:05;34.97;;;15.82;;
48911;SDS011;34722;52.108;5.044;2023-11-22T02:09:31;36.42;;;16.90;;
48911;SDS011;34722;52.108;5.044;2023-11-22T02:11:57;33.88;;;16.92;;
48911;SDS011;34722;52.108;5.044;2023-11-22T02:14:23;38.92;;;16.70;;
48911;SDS011;34722;52.108;5.044;2023-11-22T02:16:48;38.47;;;17.88;;
48911;SDS011;34722;52.108;5.044;2023-11-22T02:19:15;36.60;;;15.85;;
48911;SDS011;34722;52.108;5.044;2023-11-22T02:21:41;34.55;;;16.52;;
48911;SDS011;34722;52.108;5.044;2023-11-22T02:24:07;41.65;;;17.50;;
48911;SDS011;34722;52.108;5.044;2023-11-22T02:26:33;46.92;;;18.92;;
48911;SDS011;34722;52.108;5.044;2023-11-22T02:28:59;44.88;;;18.35;;
48911;SDS011;34722;52.108;5.044;2023-11-22T02:31:25;44.92;;;17.67;;
48911;SDS011;34722;52.108;5.044;2023-11-22T02:33:52;46.42;;;18.33;;
48911;SDS011;34722;52.108;5.044;2023-11-22T02:36:18;46.03;;;18.13;;
48911;SDS011;34722;52.108;5.044;2023-11-22T02:38:44;47.67;;;19.98;;
48911;SDS011;34722;52.108;5.044;2023-11-22T02:41:11;49.05;;;19.45;;
48911;SDS011;34722;52.108;5.044;2023-11-22T02:43:38;40.20;;;17.05;;
48911;SDS011;34722;52.108;5.044;2023-11-22T02:46:04;42.35;;;17.52;;
48911;SDS011;34722;52.108;5.044;2023-11-22T02:48:30;42.88;;;18.85;;
48911;SDS011;34722;52.108;5.044;2023-11-22T02:50:56;54.33;;;19.85;;
48911;SDS011;34722;52.108;5.044;2023-11-22T02:53:21;54.90;;;19.50;;
48911;SDS011;34722;52.108;5.044;2023-11-22T02:55:47;51.85;;;19.52;;
48911;SDS011;34722;52.108;5.044;2023-11-22T02:58:13;47.65;;;19.60;;
48911;SDS011;34722;52.108;5.044;2023-11-22T03:00:42;45.72;;;18.92;;
48911;SDS011;34722;52.108;5.044;2023-11-22T03:03:08;44.83;;;19.45;;
48911;SDS011;34722;52.108;5.044;2023-11-22T03:05:35;43.78;;;18.13;;
48911;SDS011;34722;52.108;5.044;2023-11-22T03:08:05;46.90;;;18.23;;
48911;SDS011;34722;52.108;5.044;2023-11-22T03:10:32;54.65;;;20.33;;
48911;SDS011;34722;52.108;5.044;2023-11-22T03:12:58;48.78;;;19.73;;
48911;SDS011;34722;52.108;5.044;2023-11-22T03:15:24;45.90;;;20.33;;
48911;SDS011;34722;52.108;5.044;2023-11-22T03:17:50;58.13;;;21.17;;
48911;SDS011;34722;52.108;5.044;2023-11-22T03:20:16;49.97;;;19.02;;
48911;SDS011;34722;52.108;5.044;2023-11-22T03:22:42;55.85;;;21.70;;
48911;SDS011;34722;52.108;5.044;2023-11-22T03:25:15;53.58;;;20.23;;
48911;SDS011;34722;52.108;5.044;2023-11-22T03:27:41;54.88;;;21.42;;
48911;SDS011;34722;52.108;5.044;2023-11-22T03:30:07;53.50;;;21.73;;
48911;SDS011;34722;52.108;5.044;2023-11-22T03:32:36;57.03;;;21.50;;
48911;SDS011;34722;52.108;5.044;2023-11-22T03:35:06;54.33;;;21.65;;
48911;SDS011;34722;52.108;5.044;2023-11-22T03:37:32;51.55;;;19.70;;
48911;SDS011;34722;52.108;5.044;2023-11-22T03:39:58;53.83;;;21.13;;
48911;SDS011;34722;52.108;5.044;2023-11-22T03:42:24;56.40;;;21.95;;
48911;SDS011;34722;52.108;5.044;2023-11-22T03:44:49;58.33;;;22.38;;
48911;SDS011;34722;52.108;5.044;2023-11-22T03:47:15;57.33;;;22.88;;
48911;SDS011;34722;52.108;5.044;2023-11-22T03:49:41;68.63;;;23.38;;
48911;SDS011;34722;52.108;5.044;2023-11-22T03:52:08;60.70;;;23.38;;
48911;SDS011;34722;52.108;5.044;2023-11-22T03:54:35;60.17;;;22.17;;
48911;SDS011;34722;52.108;5.044;2023-11-22T03:57:02;64.13;;;22.58;;
48911;SDS011;34722;52.108;5.044;2023-11-22T03:59:28;60.58;;;23.23;;
48911;SDS011;34722;52.108;5.044;2023-11-22T04:01:54;61.42;;;24.27;;
48911;SDS011;34722;52.108;5.044;2023-11-22T04:04:20;60.33;;;22.88;;
48911;SDS011;34722;52.108;5.044;2023-11-22T04:06:46;53.35;;;21.48;;
48911;SDS011;34722;52.108;5.044;2023-11-22T04:09:11;58.42;;;22.13;;
48911;SDS011;34722;52.108;5.044;2023-11-22T04:11:37;63.15;;;21.95;;
48911;SDS011;34722;52.108;5.044;2023-11-22T04:14:03;58.17;;;22.20;;
48911;SDS011;34722;52.108;5.044;2023-11-22T04:16:29;57.80;;;21.48;;
48911;SDS011;34722;52.108;5.044;2023-11-22T04:18:55;56.78;;;23.20;;
48911;SDS011;34722;52.108;5.044;2023-11-22T04:21:21;51.08;;;20.52;;
48911;SDS011;34722;52.108;5.044;2023-11-22T04:23:46;51.63;;;22.05;;
48911;SDS011;34722;52.108;5.044;2023-11-22T04:26:13;53.75;;;20.05;;
48911;SDS011;34722;52.108;5.044;2023-11-22T04:28:39;56.22;;;21.60;;
48911;SDS011;34722;52.108;5.044;2023-11-22T04:31:04;57.80;;;22.15;;
48911;SDS011;34722;52.108;5.044;2023-11-22T04:33:33;57.58;;;22.92;;
48911;SDS011;34722;52.108;5.044;2023-11-22T04:35:59;55.15;;;23.27;;
48911;SDS011;34722;52.108;5.044;2023-11-22T04:38:25;53.72;;;21.48;;
48911;SDS011;34722;52.108;5.044;2023-11-22T04:40:51;55.33;;;23.42;;
48911;SDS011;34722;52.108;5.044;2023-11-22T04:43:17;60.95;;;22.83;;
48911;SDS011;34722;52.108;5.044;2023-11-22T04:45:45;49.28;;;21.20;;
48911;SDS011;34722;52.108;5.044;2023-11-22T04:48:11;50.35;;;21.45;;
48911;SDS011;34722;52.108;5.044;2023-11-22T04:50:39;52.55;;;22.20;;
48911;SDS011;34722;52.108;5.044;2023-11-22T04:53:05;55.17;;;22.60;;
48911;SDS011;34722;52.108;5.044;2023-11-22T04:55:31;51.35;;;21.77;;
48911;SDS011;34722;52.108;5.044;2023-11-22T04:57:57;53.65;;;22.88;;
48911;SDS011;34722;52.108;5.044;2023-11-22T05:00:22;54.38;;;21.25;;
48911;SDS011;34722;52.108;5.044;2023-11-22T05:02:48;49.90;;;20.88;;
48911;SDS011;34722;52.108;5.044;2023-11-22T05:05:13;47.45;;;21.45;;
48911;SDS011;34722;52.108;5.044;2023-11-22T05:07:48;46.90;;;21.73;;
48911;SDS011;34722;52.108;5.044;2023-11-22T05:10:14;51.08;;;20.38;;
48911;SDS011;34722;52.108;5.044;2023-11-22T05:12:42;51.17;;;21.30;;
48911;SDS011;34722;52.108;5.044;2023-11-22T05:15:08;46.70;;;21.20;;
48911;SDS011;34722;52.108;5.044;2023-11-22T05:17:34;53.67;;;21.27;;
48911;SDS011;34722;52.108;5.044;2023-11-22T05:20:00;52.85;;;21.08;;
48911;SDS011;34722;52.108;5.044;2023-11-22T05:22:26;50.50;;;20.80;;
48911;SDS011;34722;52.108;5.044;2023-11-22T05:24:51;50.60;;;20.30;;
48911;SDS011;34722;52.108;5.044;2023-11-22T05:27:17;44.58;;;20.35;;
48911;SDS011;34722;52.108;5.044;2023-11-22T05:29:43;50.90;;;19.65;;
48911;SDS011;34722;52.108;5.044;2023-11-22T05:32:08;42.85;;;19.02;;
48911;SDS011;34722;52.108;5.044;2023-11-22T05:34:34;43.60;;;18.80;;
48911;SDS011;34722;52.108;5.044;2023-11-22T05:37:00;45.47;;;18.85;;
48911;SDS011;34722;52.108;5.044;2023-11-22T05:39:25;45.33;;;19.25;;
48911;SDS011;34722;52.108;5.044;2023-11-22T05:41:52;47.08;;;20.23;;
48911;SDS011;34722;52.108;5.044;2023-11-22T05:44:18;44.15;;;20.33;;
48911;SDS011;34722;52.108;5.044;2023-11-22T05:46:44;44.45;;;21.63;;
48911;SDS011;34722;52.108;5.044;2023-11-22T05:49:09;40.83;;;19.15;;
48911;SDS011;34722;52.108;5.044;2023-11-22T05:51:36;45.13;;;19.08;;
48911;SDS011;34722;52.108;5.044;2023-11-22T05:54:04;41.70;;;19.17;;
48911;SDS011;34722;52.108;5.044;2023-11-22T05:56:39;42.17;;;18.88;;
48911;SDS011;34722;52.108;5.044;2023-11-22T05:59:05;43.22;;;17.98;;
48911;SDS011;34722;52.108;5.044;2023-11-22T06:01:31;43.47;;;18.67;;
48911;SDS011;34722;52.108;5.044;2023-11-22T06:03:57;42.65;;;19.85;;
48911;SDS011;34722;52.108;5.044;2023-11-22T06:06:22;38.28;;;18.65;;
48911;SDS011;34722;52.108;5.044;2023-11-22T06:08:48;38.25;;;18.13;;
48911;SDS011;34722;52.108;5.044;2023-11-22T06:11:14;35.33;;;17.55;;
48911;SDS011;34722;52.108;5.044;2023-11-22T06:13:41;40.92;;;17.67;;
48911;SDS011;34722;52.108;5.044;2023-11-22T06:16:08;37.38;;;17.00;;
48911;SDS011;34722;52.108;5.044;2023-11-22T06:18:34;42.65;;;17.92;;
48911;SDS011;34722;52.108;5.044;2023-11-22T06:21:05;37.58;;;17.92;;
48911;SDS011;34722;52.108;5.044;2023-11-22T06:23:34;36.22;;;15.90;;
48911;SDS011;34722;52.108;5.044;2023-11-22T06:26:00;33.92;;;15.60;;
48911;SDS011;34722;52.108;5.044;2023-11-22T06:28:26;33.38;;;16.73;;
48911;SDS011;34722;52.108;5.044;2023-11-22T06:30:53;38.63;;;17.08;;
48911;SDS011;34722;52.108;5.044;2023-11-22T06:33:19;38.17;;;17.52;;
48911;SDS011;34722;52.108;5.044;2023-11-22T06:35:45;38.80;;;17.17;;
48911;SDS011;34722;52.108;5.044;2023-11-22T06:38:10;39.17;;;18.17;;
48911;SDS011;34722;52.108;5.044;2023-11-22T06:40:36;40.13;;;18.83;;
48911;SDS011;34722;52.108;5.044;2023-11-22T06:43:02;37.83;;;16.77;;
48911;SDS011;34722;52.108;5.044;2023-11-22T06:45:31;37.58;;;17.25;;
48911;SDS011;34722;52.108;5.044;2023-11-22T06:47:57;38.30;;;17.42;;
48911;SDS011;34722;52.108;5.044;2023-11-22T06:50:23;45.10;;;19.90;;
48911;SDS011;34722;52.108;5.044;2023-11-22T06:52:51;41.15;;;18.88;;
48911;SDS011;34722;52.108;5.044;2023-11-22T06:55:18;44.22;;;18.25;;
48911;SDS011;34722;52.108;5.044;2023-11-22T06:57:43;41.58;;;17.58;;
48911;SDS011;34722;52.108;5.044;2023-11-22T07:00:10;39.55;;;18.70;;
48911;SDS011;34722;52.108;5.044;2023-11-22T07:02:41;40.20;;;17.30;;
48911;SDS011;34722;52.108;5.044;2023-11-22T07:05:08;43.70;;;19.02;;
48911;SDS011;34722;52.108;5.044;2023-11-22T07:07:37;44.38;;;18.70;;
48911;SDS011;34722;52.108;5.044;2023-11-22T07:10:03;41.08;;;18.20;;
48911;SDS011;34722;52.108;5.044;2023-11-22T07:12:31;39.55;;;18.85;;
48911;SDS011;34722;52.108;5.044;2023-11-22T07:15:02;39.42;;;18.15;;
48911;SDS011;34722;52.108;5.044;2023-11-22T07:17:28;33.15;;;16.50;;
48911;SDS011;34722;52.108;5.044;2023-11-22T07:19:54;41.40;;;18.65;;
48911;SDS011;34722;52.108;5.044;2023-11-22T07:22:20;36.55;;;17.65;;
48911;SDS011;34722;52.108;5.044;2023-11-22T07:24:47;41.38;;;19.42;;
48911;SDS011;34722;52.108;5.044;2023-11-22T07:27:16;42.70;;;19.23;;
48911;SDS011;34722;52.108;5.044;2023-11-22T07:29:43;39.40;;;18.08;;
48911;SDS011;34722;52.108;5.044;2023-11-22T07:32:10;44.85;;;19.02;;
48911;SDS011;34722;52.108;5.044;2023-11-22T07:34:36;35.47;;;18.00;;
48911;SDS011;34722;52.108;5.044;2023-11-22T07:37:04;43.55;;;18.88;;
48911;SDS011;34722;52.108;5.044;2023-11-22T07:39:32;39.90;;;17.50;;
48911;SDS011;34722;52.108;5.044;2023-11-22T07:41:58;41.80;;;19.35;;
48911;SDS011;34722;52.108;5.044;2023-11-22T07:44:23;41.10;;;18.48;;
48911;SDS011;34722;52.108;5.044;2023-11-22T07:46:49;47.35;;;18.73;;
48911;SDS011;34722;52.108;5.044;2023-11-22T07:49:16;42.78;;;19.83;;
48911;SDS011;34722;52.108;5.044;2023-11-22T07:51:44;43.30;;;19.80;;
48911;SDS011;34722;52.108;5.044;2023-11-22T07:54:10;46.22;;;19.83;;
48911;SDS011;34722;52.108;5.044;2023-11-22T07:56:40;40.78;;;18.45;;
48911;SDS011;34722;52.108;5.044;2023-11-22T07:59:08;45.33;;;20.00;;
48911;SDS011;34722;52.108;5.044;2023-11-22T08:01:35;42.70;;;19.13;;
48911;SDS011;34722;52.108;5.044;2023-11-22T08:04:04;44.58;;;19.45;;
48911;SDS011;34722;52.108;5.044;2023-11-22T08:06:31;43.97;;;19.80;;
48911;SDS011;34722;52.108;5.044;2023-11-22T08:08:57;38.60;;;19.55;;
48911;SDS011;34722;52.108;5.044;2023-11-22T08:11:26;39.92;;;18.13;;
48911;SDS011;34722;52.108;5.044;2023-11-22T08:13:53;43.40;;;20.98;;
48911;SDS011;34722;52.108;5.044;2023-11-22T08:16:22;41.75;;;19.10;;
48911;SDS011;34722;52.108;5.044;2023-11-22T08:18:48;37.65;;;17.80;;
48911;SDS011;34722;52.108;5.044;2023-11-22T08:21:14;41.75;;;19.63;;
48911;SDS011;34722;52.108;5.044;2023-11-22T08:23:39;45.20;;;18.75;;
48911;SDS011;34722;52.108;5.044;2023-11-22T08:26:05;41.05;;;19.13;;
48911;SDS011;34722;52.108;5.044;2023-11-22T08:28:33;42.60;;;20.48;;
48911;SDS011;34722;52.108;5.044;2023-11-22T08:30:59;41.70;;;19.73;;
48911;SDS011;34722;52.108;5.044;2023-11-22T08:33:25;40.63;;;18.25;;
48911;SDS011;34722;52.108;5.044;2023-11-22T08:35:51;37.55;;;18.40;;
48911;SDS011;34722;52.108;5.044;2023-11-22T08:38:23;43.72;;;18.95;;
48911;SDS011;34722;52.108;5.044;2023-11-22T08:40:50;35.33;;;17.98;;
48911;SDS011;34722;52.108;5.044;2023-11-22T08:43:15;36.97;;;18.48;;
48911;SDS011;34722;52.108;5.044;2023-11-22T08:45:41;34.38;;;18.23;;
48911;SDS011;34722;52.108;5.044;2023-11-22T08:48:09;34.72;;;17.35;;
48911;SDS011;34722;52.108;5.044;2023-11-22T08:50:34;30.95;;;17.27;;
48911;SDS011;34722;52.108;5.044;2023-11-22T08:53:00;35.45;;;18.02;;
48911;SDS011;34722;52.108;5.044;2023-11-22T08:55:26;33.80;;;18.50;;
48911;SDS011;34722;52.108;5.044;2023-11-22T08:57:51;32.53;;;16.70;;
48911;SDS011;34722;52.108;5.044;2023-11-22T09:00:17;29.95;;;16.83;;
48911;SDS011;34722;52.108;5.044;2023-11-22T09:02:48;30.42;;;16.48;;
48911;SDS011;34722;52.108;5.044;2023-11-22T09:05:14;38.13;;;21.02;;
48911;SDS011;34722;52.108;5.044;2023-11-22T09:07:41;39.63;;;20.23;;
48911;SDS011;34722;52.108;5.044;2023-11-22T09:10:09;31.38;;;17.27;;
48911;SDS011;34722;52.108;5.044;2023-11-22T09:12:37;33.78;;;18.35;;
48911;SDS011;34722;52.108;5.044;2023-11-22T09:15:06;36.40;;;18.35;;
48911;SDS011;34722;52.108;5.044;2023-11-22T09:17:35;32.92;;;18.52;;
48911;SDS011;34722;52.108;5.044;2023-11-22T09:20:14;35.63;;;20.27;;
48911;SDS011;34722;52.108;5.044;2023-11-22T09:22:47;35.28;;;20.63;;
48911;SDS011;34722;52.108;5.044;2023-11-22T09:25:17;38.70;;;22.20;;
48911;SDS011;34722;52.108;5.044;2023-11-22T09:27:46;38.25;;;21.95;;
48911;SDS011;34722;52.108;5.044;2023-11-22T09:30:14;36.90;;;19.02;;
48911;SDS011;34722;52.108;5.044;2023-11-22T09:32:45;37.80;;;20.50;;
48911;SDS011;34722;52.108;5.044;2023-11-22T09:35:12;36.13;;;19.95;;
48911;SDS011;34722;52.108;5.044;2023-11-22T09:37:39;38.40;;;20.00;;
48911;SDS011;34722;52.108;5.044;2023-11-22T09:40:07;41.15;;;21.70;;
48911;SDS011;34722;52.108;5.044;2023-11-22T09:42:34;42.03;;;23.17;;
48911;SDS011;34722;52.108;5.044;2023-11-22T09:45:00;31.83;;;18.48;;
48911;SDS011;34722;52.108;5.044;2023-11-22T09:47:26;36.58;;;20.17;;
48911;SDS011;34722;52.108;5.044;2023-11-22T09:49:54;39.53;;;21.27;;
48911;SDS011;34722;52.108;5.044;2023-11-22T09:55:29;43.92;;;23.65;;
48911;SDS011;34722;52.108;5.044;2023-11-22T09:57:58;41.00;;;25.85;;
48911;SDS011;34722;52.108;5.044;2023-11-22T10:00:26;42.65;;;25.38;;
48911;SDS011;34722;52.108;5.044;2023-11-22T10:02:55;47.97;;;26.45;;
48911;SDS011;34722;52.108;5.044;2023-11-22T10:05:21;42.90;;;26.60;;
48911;SDS011;34722;52.108;5.044;2023-11-22T10:07:47;46.00;;;25.15;;
48911;SDS011;34722;52.108;5.044;2023-11-22T10:10:13;46.33;;;25.73;;
48911;SDS011;34722;52.108;5.044;2023-11-22T10:12:42;47.45;;;26.23;;
48911;SDS011;34722;52.108;5.044;2023-11-22T10:17:37;36.22;;;20.27;;
48911;SDS011;34722;52.108;5.044;2023-11-22T10:20:03;41.88;;;22.13;;
48911;SDS011;34722;52.108;5.044;2023-11-22T10:22:29;37.90;;;20.80;;
48911;SDS011;34722;52.108;5.044;2023-11-22T10:24:58;32.50;;;20.33;;
48911;SDS011;34722;52.108;5.044;2023-11-22T10:27:25;41.60;;;20.45;;
48911;SDS011;34722;52.108;5.044;2023-11-22T10:29:51;37.50;;;21.80;;
48911;SDS011;34722;52.108;5.044;2023-11-22T10:32:17;42.20;;;24.85;;
48911;SDS011;34722;52.108;5.044;2023-11-22T10:34:43;41.88;;;22.77;;
48911;SDS011;34722;52.108;5.044;2023-11-22T10:37:09;39.38;;;24.20;;
48911;SDS011;34722;52.108;5.044;2023-11-22T10:39:35;48.03;;;26.55;;
48911;SDS011;34722;52.108;5.044;2023-11-22T10:45:23;41.28;;;24.73;;
48911;SDS011;34722;52.108;5.044;2023-11-22T10:47:52;35.75;;;22.20;;
48911;SDS011;34722;52.108;5.044;2023-11-22T10:50:20;34.50;;;20.50;;
48911;SDS011;34722;52.108;5.044;2023-11-22T10:52:50;37.03;;;20.45;;
48911;SDS011;34722;52.108;5.044;2023-11-22T10:55:20;35.50;;;18.42;;
48911;SDS011;34722;52.108;5.044;2023-11-22T10:57:51;33.88;;;19.85;;
48911;SDS011;34722;52.108;5.044;2023-11-22T11:00:23;38.35;;;20.25;;
48911;SDS011;34722;52.108;5.044;2023-11-22T11:02:59;35.72;;;19.52;;
48911;SDS011;34722;52.108;5.044;2023-11-22T11:05:32;37.17;;;19.38;;
48911;SDS011;34722;52.108;5.044;2023-11-22T11:08:00;31.88;;;19.02;;
48911;SDS011;34722;52.108;5.044;2023-11-22T11:13:09;36.08;;;20.17;;
48911;SDS011;34722;52.108;5.044;2023-11-22T11:15:36;37.17;;;20.92;;
48911;SDS011;34722;52.108;5.044;2023-11-22T11:18:02;36.00;;;20.23;;
48911;SDS011;34722;52.108;5.044;2023-11-22T11:20:33;36.50;;;20.25;;
48911;SDS011;34722;52.108;5.044;2023-11-22T11:23:27;33.97;;;18.92;;
48911;SDS011;34722;52.108;5.044;2023-11-22T11:25:57;40.20;;;22.10;;
48911;SDS011;34722;52.108;5.044;2023-11-22T11:28:26;34.45;;;17.90;;
48911;SDS011;34722;52.108;5.044;2023-11-22T11:31:06;41.90;;;19.60;;
48911;SDS011;34722;52.108;5.044;2023-11-22T11:33:32;35.78;;;19.63;;
48911;SDS011;34722;52.108;5.044;2023-11-22T11:36:00;36.88;;;20.30;;
48911;SDS011;34722;52.108;5.044;2023-11-22T11:38:32;34.42;;;19.52;;
48911;SDS011;34722;52.108;5.044;2023-11-22T11:41:08;36.10;;;18.77;;
48911;SDS011;34722;52.108;5.044;2023-11-22T11:43:43;40.63;;;20.73;;
48911;SDS011;34722;52.108;5.044;2023-11-22T11:46:14;35.25;;;20.30;;
48911;SDS011;34722;52.108;5.044;2023-11-22T11:48:43;39.05;;;21.20;;
48911;SDS011;34722;52.108;5.044;2023-11-22T11:51:09;35.13;;;19.58;;
48911;SDS011;34722;52.108;5.044;2023-11-22T11:53:38;41.03;;;19.88;;
48911;SDS011;34722;52.108;5.044;2023-11-22T11:56:04;34.83;;;18.38;;
48911;SDS011;34722;52.108;5.044;2023-11-22T11:58:30;39.67;;;21.02;;
48911;SDS011;34722;52.108;5.044;2023-11-22T12:00:56;40.55;;;20.95;;
48911;SDS011;34722;52.108;5.044;2023-11-22T12:03:23;36.55;;;18.67;;
48911;SDS011;34722;52.108;5.044;2023-11-22T12:05:49;34.17;;;18.83;;
48911;SDS011;34722;52.108;5.044;2023-11-22T12:08:15;33.65;;;18.80;;
48911;SDS011;34722;52.108;5.044;2023-11-22T12:10:42;35.83;;;18.98;;
48911;SDS011;34722;52.108;5.044;2023-11-22T12:13:09;37.45;;;18.33;;
48911;SDS011;34722;52.108;5.044;2023-11-22T12:15:34;37.28;;;20.05;;
48911;SDS011;34722;52.108;5.044;2023-11-22T12:18:01;39.03;;;19.35;;
48911;SDS011;34722;52.108;5.044;2023-11-22T12:20:33;37.28;;;19.15;;
48911;SDS011;34722;52.108;5.044;2023-11-22T12:22:59;34.95;;;18.23;;
48911;SDS011;34722;52.108;5.044;2023-11-22T12:25:27;33.35;;;18.75;;
48911;SDS011;34722;52.108;5.044;2023-11-22T12:27:54;39.05;;;20.73;;
48911;SDS011;34722;52.108;5.044;2023-11-22T12:30:35;33.60;;;19.17;;
48911;SDS011;34722;52.108;5.044;2023-11-22T12:33:05;41.58;;;21.75;;
48911;SDS011;34722;52.108;5.044;2023-11-22T12:35:34;40.22;;;20.13;;
48911;SDS011;34722;52.108;5.044;2023-11-22T12:38:01;41.28;;;20.77;;
48911;SDS011;34722;52.108;5.044;2023-11-22T12:40:28;36.92;;;19.05;;
48911;SDS011;34722;52.108;5.044;2023-11-22T12:45:34;39.25;;;22.38;;
48911;SDS011;34722;52.108;5.044;2023-11-22T12:48:19;41.25;;;22.05;;
48911;SDS011;34722;52.108;5.044;2023-11-22T12:50:49;40.80;;;21.80;;
48911;SDS011;34722;52.108;5.044;2023-11-22T12:53:15;43.83;;;23.10;;
48911;SDS011;34722;52.108;5.044;2023-11-22T12:55:44;42.67;;;23.38;;
48911;SDS011;34722;52.108;5.044;2023-11-22T12:58:13;48.40;;;23.90;;
48911;SDS011;34722;52.108;5.044;2023-11-22T13:00:39;48.63;;;25.80;;
48911;SDS011;34722;52.108;5.044;2023-11-22T13:03:08;49.85;;;24.58;;
48911;SDS011;34722;52.108;5.044;2023-11-22T13:05:44;44.38;;;23.75;;
48911;SDS011;34722;52.108;5.044;2023-11-22T13:08:11;53.70;;;24.10;;
48911;SDS011;34722;52.108;5.044;2023-11-22T13:10:43;43.90;;;24.23;;
48911;SDS011;34722;52.108;5.044;2023-11-22T13:13:10;45.30;;;24.38;;
48911;SDS011;34722;52.108;5.044;2023-11-22T13:15:36;52.95;;;26.52;;
48911;SDS011;34722;52.108;5.044;2023-11-22T13:18:02;46.10;;;22.63;;
48911;SDS011;34722;52.108;5.044;2023-11-22T13:20:28;46.80;;;24.10;;
48911;SDS011;34722;52.108;5.044;2023-11-22T13:22:54;42.97;;;22.98;;
48911;SDS011;34722;52.108;5.044;2023-11-22T13:25:23;47.20;;;24.33;;
48911;SDS011;34722;52.108;5.044;2023-11-22T13:27:49;49.20;;;23.67;;
48911;SDS011;34722;52.108;5.044;2023-11-22T13:30:17;47.78;;;24.10;;
48911;SDS011;34722;52.108;5.044;2023-11-22T13:32:45;42.95;;;21.35;;
48911;SDS011;34722;52.108;5.044;2023-11-22T13:35:12;44.33;;;22.63;;
48911;SDS011;34722;52.108;5.044;2023-11-22T13:37:43;40.22;;;21.23;;
48911;SDS011;34722;52.108;5.044;2023-11-22T13:40:10;43.50;;;22.52;;
48911;SDS011;34722;52.108;5.044;2023-11-22T13:42:43;47.20;;;22.42;;
48911;SDS011;34722;52.108;5.044;2023-11-22T13:45:15;46.03;;;23.67;;
48911;SDS011;34722;52.108;5.044;2023-11-22T13:47:46;47.55;;;22.98;;
48911;SDS011;34722;52.108;5.044;2023-11-22T13:50:14;41.13;;;23.00;;
48911;SDS011;34722;52.108;5.044;2023-11-22T13:52:43;44.17;;;21.40;;
48911;SDS011;34722;52.108;5.044;2023-11-22T13:55:08;39.95;;;20.63;;
48911;SDS011;34722;52.108;5.044;2023-11-22T13:57:36;44.72;;;21.92;;
48911;SDS011;34722;52.108;5.044;2023-11-22T14:00:03;38.50;;;20.63;;
48911;SDS011;34722;52.108;5.044;2023-11-22T14:02:35;37.90;;;19.17;;
48911;SDS011;34722;52.108;5.044;2023-11-22T14:05:01;43.50;;;20.88;;
48911;SDS011;34722;52.108;5.044;2023-11-22T14:07:32;41.28;;;20.58;;
48911;SDS011;34722;52.108;5.044;2023-11-22T14:09:59;39.03;;;20.83;;
48911;SDS011;34722;52.108;5.044;2023-11-22T14:12:24;42.22;;;20.92;;
48911;SDS011;34722;52.108;5.044;2023-11-22T14:14:50;39.85;;;21.17;;
48911;SDS011;34722;52.108;5.044;2023-11-22T14:17:16;40.60;;;19.73;;
48911;SDS011;34722;52.108;5.044;2023-11-22T14:19:45;40.70;;;20.85;;
48911;SDS011;34722;52.108;5.044;2023-11-22T14:22:11;43.92;;;22.17;;
48911;SDS011;34722;52.108;5.044;2023-11-22T14:24:39;37.95;;;20.63;;
48911;SDS011;34722;52.108;5.044;2023-11-22T14:27:05;37.97;;;19.75;;
48911;SDS011;34722;52.108;5.044;2023-11-22T14:29:31;41.42;;;20.95;;
48911;SDS011;34722;52.108;5.044;2023-11-22T14:31:58;40.78;;;20.90;;
48911;SDS011;34722;52.108;5.044;2023-11-22T14:34:24;44.95;;;21.45;;